Time;durP1;ratioP1;P1;durP2;ratioP2;P2;SDS_P1;SDS_P2;PMS_P1;PMS_P2;Temp;Humidity;BMP_temperature;BMP_pressure;BME280_temperature;BME280_humidity;BME280_pressure;Samples;Min_cycle;Max_cycle;Signal;HPM_P1;HPM_P2
2022/02/25 00:01:17;;;;;;;13.90;2.85;;;22.40;99.90;;;;;;5049865;28;20029;-67
2022/02/25 00:03:45;;;;;;;9.65;1.73;;;22.50;99.90;;;;;;5048580;28;20021;-67
2022/02/25 00:06:12;;;;;;;10.80;1.80;;;22.40;99.90;;;;;;5032737;28;20040;-67
2022/02/25 00:08:39;;;;;;;12.32;2.22;;;22.30;99.90;;;;;;5048475;28;20531;-65
2022/02/25 00:11:07;;;;;;;9.65;1.48;;;22.20;99.90;;;;;;5051112;28;20451;-65
2022/02/25 00:13:34;;;;;;;10.85;2.00;;;22.20;99.90;;;;;;5048684;28;20024;-66
2022/02/25 00:16:02;;;;;;;6.28;1.20;;;22.20;99.90;;;;;;5049473;28;20021;-66
2022/02/25 00:18:29;;;;;;;11.15;2.22;;;22.20;99.90;;;;;;5050624;28;20028;-66
2022/02/25 00:20:56;;;;;;;8.57;1.73;;;22.10;99.90;;;;;;5047201;28;20100;-66
2022/02/25 00:23:24;;;;;;;11.63;1.60;;;22.10;99.90;;;;;;5049430;28;20032;-66
2022/02/25 00:25:51;;;;;;;7.68;1.55;;;22.10;99.90;;;;;;5046170;28;20037;-66
2022/02/25 00:28:19;;;;;;;8.07;2.10;;;22.10;99.90;;;;;;5051127;28;20047;-66
2022/02/25 00:30:47;;;;;;;9.50;1.98;;;22.10;99.90;;;;;;5047511;28;20084;-66
2022/02/25 00:33:16;;;;;;;11.48;1.48;;;22.00;99.90;;;;;;5033717;28;20029;-66
2022/02/25 00:35:45;;;;;;;7.70;1.25;;;22.00;99.90;;;;;;5045522;28;20032;-66
2022/02/25 00:38:12;;;;;;;10.18;1.75;;;22.00;99.90;;;;;;5051663;28;20025;-66
2022/02/25 00:40:40;;;;;;;8.75;1.80;;;22.00;99.90;;;;;;5048937;28;20462;-66
2022/02/25 00:43:08;;;;;;;9.13;1.70;;;21.90;99.90;;;;;;5044348;28;20030;-66
2022/02/25 00:45:36;;;;;;;9.13;2.55;;;22.00;99.90;;;;;;5051519;28;20064;-66
2022/02/25 00:48:03;;;;;;;9.13;2.72;;;22.00;99.90;;;;;;5044372;28;20078;-66
2022/02/25 00:50:31;;;;;;;9.02;2.17;;;22.00;99.90;;;;;;5025429;28;20465;-66
2022/02/25 00:53:00;;;;;;;9.60;1.83;;;22.00;99.90;;;;;;5046342;28;20390;-67
2022/02/25 00:55:27;;;;;;;7.97;2.00;;;22.00;99.90;;;;;;5051898;28;20103;-67
2022/02/25 00:57:58;;;;;;;8.48;1.65;;;22.00;99.90;;;;;;5035797;28;20495;-67
2022/02/25 01:00:27;;;;;;;9.20;1.58;;;21.90;99.90;;;;;;5052860;28;20036;-66
2022/02/25 01:02:55;;;;;;;10.05;1.83;;;21.90;99.90;;;;;;5053313;28;20031;-67
2022/02/25 01:05:23;;;;;;;8.90;1.80;;;21.90;99.90;;;;;;5053479;28;20037;-67
2022/02/25 01:07:50;;;;;;;7.47;1.70;;;21.90;99.90;;;;;;5053509;28;20029;-67
2022/02/25 01:10:19;;;;;;;9.85;1.90;;;21.80;99.90;;;;;;5053781;28;20028;-67
2022/02/25 01:12:48;;;;;;;7.93;1.67;;;21.90;99.90;;;;;;5052067;28;20034;-67
2022/02/25 01:15:17;;;;;;;11.77;2.15;;;21.90;99.90;;;;;;5053345;28;20032;-67
2022/02/25 01:17:44;;;;;;;9.70;2.15;;;21.90;99.90;;;;;;5032882;28;20116;-67
2022/02/25 01:20:12;;;;;;;10.07;1.45;;;21.90;99.90;;;;;;5040162;28;20028;-66
2022/02/25 01:22:40;;;;;;;9.60;1.80;;;21.90;99.90;;;;;;5052448;28;20047;-66
2022/02/25 01:25:08;;;;;;;9.68;2.10;;;22.00;99.90;;;;;;5034797;28;20037;-66
2022/02/25 01:27:35;;;;;;;10.07;2.08;;;22.10;99.90;;;;;;5051812;28;20565;-66
2022/02/25 01:30:05;;;;;;;10.60;2.38;;;22.00;99.90;;;;;;5052489;28;20626;-66
2022/02/25 01:32:33;;;;;;;14.27;2.55;;;22.00;99.90;;;;;;5051705;28;20033;-67
2022/02/25 01:35:01;;;;;;;14.02;2.42;;;22.10;99.90;;;;;;5052302;28;20036;-66
2022/02/25 01:37:28;;;;;;;8.32;2.80;;;22.30;99.90;;;;;;5051392;28;20041;-67
2022/02/25 01:39:56;;;;;;;13.82;2.58;;;22.30;99.90;;;;;;5051169;28;20057;-67
2022/02/25 01:42:24;;;;;;;13.90;2.65;;;22.40;99.90;;;;;;5059235;23;20052;-67
2022/02/25 01:44:52;;;;;;;15.05;3.28;;;22.40;99.90;;;;;;5052322;28;20029;-67
2022/02/25 01:47:19;;;;;;;14.07;3.80;;;22.40;99.90;;;;;;5049874;28;20037;-66
2022/02/25 01:49:47;;;;;;;13.10;3.70;;;22.50;99.90;;;;;;5049913;28;20493;-67
2022/02/25 01:52:18;;;;;;;14.02;2.78;;;22.30;99.90;;;;;;5054857;28;20393;-66
2022/02/25 01:54:47;;;;;;;11.23;2.83;;;22.20;99.90;;;;;;5037821;28;20032;-66
2022/02/25 01:57:16;;;;;;;12.95;2.75;;;22.10;99.90;;;;;;5036100;28;20440;-67
2022/02/25 01:59:44;;;;;;;14.63;3.42;;;22.20;99.90;;;;;;5055546;28;20025;-67
2022/02/25 02:02:12;;;;;;;8.27;3.05;;;22.30;99.90;;;;;;5054900;28;20362;-67
2022/02/25 02:04:40;;;;;;;12.98;3.70;;;22.30;99.90;;;;;;5040229;28;20033;-67
2022/02/25 02:07:08;;;;;;;11.90;3.78;;;22.30;99.90;;;;;;5048227;28;20044;-67
2022/02/25 02:09:37;;;;;;;15.90;3.45;;;22.30;99.90;;;;;;5052336;28;20102;-67
2022/02/25 02:12:06;;;;;;;11.48;4.28;;;22.40;99.90;;;;;;5053988;28;20029;-66
2022/02/25 02:14:34;;;;;;;12.07;4.07;;;22.50;99.90;;;;;;5052857;28;20039;-66
2022/02/25 02:17:02;;;;;;;12.50;3.40;;;22.60;99.90;;;;;;5049924;28;20040;-66
2022/02/25 02:19:30;;;;;;;9.75;2.78;;;22.70;99.90;;;;;;5052928;28;20416;-66
2022/02/25 02:21:58;;;;;;;9.15;3.25;;;22.70;99.90;;;;;;5046497;28;20029;-66
2022/02/25 02:24:26;;;;;;;9.70;2.90;;;22.80;99.90;;;;;;5040585;28;20029;-66
2022/02/25 02:26:56;;;;;;;10.05;3.08;;;22.80;99.90;;;;;;5044946;28;20367;-66
2022/02/25 02:29:24;;;;;;;10.43;3.47;;;22.90;99.90;;;;;;5024808;28;20508;-66
2022/02/25 02:31:52;;;;;;;12.98;3.78;;;22.90;99.90;;;;;;5046149;28;20108;-66
2022/02/25 02:34:20;;;;;;;13.77;3.30;;;22.90;99.90;;;;;;5048563;28;20021;-66
2022/02/25 02:36:48;;;;;;;10.40;2.63;;;22.90;99.90;;;;;;5039361;28;20104;-66
2022/02/25 02:39:16;;;;;;;10.38;2.65;;;22.80;99.90;;;;;;5037270;28;20043;-66
2022/02/25 02:41:44;;;;;;;11.70;2.97;;;22.80;99.90;;;;;;5046662;28;20448;-67
2022/02/25 02:44:11;;;;;;;10.13;3.65;;;22.90;99.90;;;;;;5047821;28;20408;-66
2022/02/25 02:46:40;;;;;;;12.85;2.80;;;22.90;99.90;;;;;;5047044;28;20028;-66
2022/02/25 02:49:08;;;;;;;10.32;3.03;;;22.80;99.90;;;;;;5049629;28;20057;-66
2022/02/25 02:51:36;;;;;;;10.20;2.05;;;22.80;99.90;;;;;;5049340;28;20031;-66
2022/02/25 02:54:04;;;;;;;8.32;2.35;;;22.80;99.90;;;;;;5050105;28;20130;-66
2022/02/25 02:56:32;;;;;;;11.00;2.83;;;22.80;99.90;;;;;;5045626;28;20017;-66
2022/02/25 02:58:59;;;;;;;11.10;2.63;;;22.80;99.90;;;;;;5051605;28;20037;-66
2022/02/25 03:01:31;;;;;;;11.68;3.33;;;22.90;99.90;;;;;;5051039;28;20020;-66
2022/02/25 03:04:01;;;;;;;13.73;3.67;;;22.90;99.90;;;;;;5052853;28;20431;-66
2022/02/25 03:06:29;;;;;;;11.38;2.70;;;23.10;99.90;;;;;;5053036;28;20033;-66
2022/02/25 03:08:56;;;;;;;15.07;3.10;;;23.10;99.90;;;;;;5049368;28;20444;-66
2022/02/25 03:11:24;;;;;;;16.15;3.03;;;23.10;99.90;;;;;;5023743;28;20025;-65
2022/02/25 03:13:52;;;;;;;10.55;3.25;;;23.10;99.90;;;;;;5052597;28;20029;-67
2022/02/25 03:16:20;;;;;;;12.07;3.42;;;23.10;99.90;;;;;;5050672;28;20028;-66
2022/02/25 03:18:47;;;;;;;11.27;2.92;;;23.00;99.90;;;;;;5053482;28;20094;-67
2022/02/25 03:21:15;;;;;;;10.27;2.33;;;23.00;99.90;;;;;;5047423;28;20025;-66
2022/02/25 03:23:42;;;;;;;15.13;2.83;;;22.90;99.90;;;;;;5051906;28;20112;-67
2022/02/25 03:26:12;;;;;;;9.23;2.30;;;22.80;99.90;;;;;;5033240;28;20036;-67
2022/02/25 03:28:39;;;;;;;12.15;2.75;;;22.70;99.90;;;;;;5035985;28;20033;-66
2022/02/25 03:31:06;;;;;;;8.75;2.53;;;22.70;99.90;;;;;;5046463;28;20389;-67
2022/02/25 03:33:33;;;;;;;10.15;1.90;;;22.50;99.90;;;;;;5037622;28;20030;-67
2022/02/25 03:36:01;;;;;;;9.82;1.90;;;22.60;99.90;;;;;;5049112;28;20483;-66
2022/02/25 03:38:29;;;;;;;16.83;4.22;;;22.60;99.90;;;;;;5052981;28;20052;-66
2022/02/25 03:40:56;;;;;;;10.75;3.95;;;22.70;99.90;;;;;;5051815;28;20027;-66
2022/02/25 03:43:23;;;;;;;10.63;2.85;;;22.90;99.90;;;;;;5050381;28;20184;-67
2022/02/25 03:45:50;;;;;;;12.55;3.67;;;23.00;99.90;;;;;;5045616;28;20048;-66
2022/02/25 03:48:18;;;;;;;8.10;2.47;;;23.00;99.90;;;;;;5049236;28;20422;-66
2022/02/25 03:50:45;;;;;;;10.23;2.90;;;23.10;99.90;;;;;;5051742;28;20123;-66
2022/02/25 03:53:12;;;;;;;16.33;3.97;;;23.00;99.90;;;;;;5051201;28;20497;-66
2022/02/25 03:55:40;;;;;;;11.57;2.90;;;23.00;99.90;;;;;;5046691;28;20022;-66
2022/02/25 03:58:07;;;;;;;13.57;3.17;;;23.00;99.90;;;;;;5055330;28;20343;-66
2022/02/25 04:00:35;;;;;;;7.05;2.47;;;22.50;99.90;;;;;;5049866;28;20017;-66
2022/02/25 04:03:02;;;;;;;18.30;3.05;;;22.00;99.90;;;;;;5048536;28;20029;-66
2022/02/25 04:05:30;;;;;;;12.50;2.10;;;21.70;99.90;;;;;;5033183;28;20045;-66
2022/02/25 04:07:57;;;;;;;14.50;1.83;;;21.60;99.90;;;;;;5051807;28;20028;-66
2022/02/25 04:10:24;;;;;;;11.85;1.80;;;21.50;99.90;;;;;;5051249;28;20029;-66
2022/02/25 04:12:52;;;;;;;7.45;1.33;;;21.40;99.90;;;;;;5044922;28;20026;-66
2022/02/25 04:15:19;;;;;;;7.93;1.33;;;21.30;99.90;;;;;;5042453;28;20048;-66
2022/02/25 04:17:47;;;;;;;3.25;0.60;;;21.30;99.90;;;;;;5052211;28;20021;-66
2022/02/25 04:20:14;;;;;;;10.15;1.88;;;21.50;99.90;;;;;;5049984;28;20040;-66
2022/02/25 04:22:41;;;;;;;7.22;1.90;;;21.60;99.90;;;;;;5051289;28;20706;-67
2022/02/25 04:25:09;;;;;;;3.97;1.20;;;21.70;99.90;;;;;;5046147;28;20040;-66
2022/02/25 04:27:37;;;;;;;3.85;1.00;;;21.80;99.90;;;;;;5046951;28;20047;-66
2022/02/25 04:30:06;;;;;;;5.78;0.98;;;21.80;99.90;;;;;;5042346;28;20083;-66
2022/02/25 04:32:33;;;;;;;5.35;3.30;;;21.90;99.90;;;;;;5032816;28;20069;-66
2022/02/25 04:35:01;;;;;;;23.90;12.27;;;22.00;99.90;;;;;;5036717;28;20036;-66
2022/02/25 04:37:28;;;;;;;8.07;3.75;;;21.90;99.90;;;;;;5048971;28;20025;-66
2022/02/25 04:39:55;;;;;;;6.95;1.80;;;21.90;99.90;;;;;;5051791;28;20115;-66
2022/02/25 04:42:23;;;;;;;10.50;6.15;;;22.00;99.90;;;;;;5046131;28;20047;-66
2022/02/25 04:44:51;;;;;;;13.75;8.02;;;22.20;99.90;;;;;;5041190;28;20032;-66
2022/02/25 04:47:18;;;;;;;12.95;4.93;;;22.20;99.90;;;;;;5050178;28;20396;-67
2022/02/25 04:49:45;;;;;;;8.75;2.83;;;22.30;99.90;;;;;;5046432;28;20110;-66
2022/02/25 04:52:13;;;;;;;9.55;2.35;;;22.40;99.90;;;;;;5051891;28;20025;-66
2022/02/25 04:54:41;;;;;;;10.02;2.72;;;22.50;99.90;;;;;;5049743;28;20521;-66
2022/02/25 04:57:08;;;;;;;9.93;1.73;;;22.70;99.90;;;;;;5048951;28;20028;-67
2022/02/25 04:59:35;;;;;;;6.18;1.55;;;22.70;99.90;;;;;;5045422;28;20478;-67
2022/02/25 05:02:03;;;;;;;9.80;2.22;;;22.90;99.90;;;;;;5045783;28;20108;-67
2022/02/25 05:04:30;;;;;;;10.90;2.42;;;23.00;99.90;;;;;;5027231;28;20020;-67
2022/02/25 05:06:58;;;;;;;11.18;2.90;;;23.10;99.90;;;;;;5046684;28;20041;-67
2022/02/25 05:09:25;;;;;;;9.80;1.90;;;22.90;99.90;;;;;;5045546;28;20117;-67
2022/02/25 05:11:52;;;;;;;12.55;3.35;;;22.90;99.90;;;;;;5043705;28;20025;-66
2022/02/25 05:22:36;;;;;;;14.55;2.60;;;23.00;99.90;;;;;;5048884;28;20036;-67
2022/02/25 05:25:04;;;;;;;18.33;4.00;;;23.10;99.90;;;;;;5048172;28;20029;-66
2022/02/25 05:27:31;;;;;;;12.48;3.00;;;23.10;99.90;;;;;;5050936;28;20484;-66
2022/02/25 05:29:58;;;;;;;15.57;3.30;;;23.20;99.90;;;;;;5051948;28;20148;-67
2022/02/25 05:32:25;;;;;;;9.80;2.65;;;23.30;99.90;;;;;;5052188;28;20046;-66
2022/02/25 05:34:53;;;;;;;12.23;2.78;;;23.20;99.90;;;;;;5052925;28;20114;-66
2022/02/25 05:37:20;;;;;;;13.50;2.88;;;23.10;99.90;;;;;;5054364;28;20028;-66
2022/02/25 05:39:47;;;;;;;17.77;3.22;;;23.00;99.90;;;;;;5050386;28;20021;-67
2022/02/25 05:42:15;;;;;;;12.50;3.33;;;23.10;99.90;;;;;;5051825;28;20083;-66
2022/02/25 05:44:42;;;;;;;20.13;3.70;;;23.00;99.90;;;;;;5052130;28;20021;-66
2022/02/25 05:47:09;;;;;;;15.57;4.22;;;23.10;99.90;;;;;;5049420;28;20067;-66
2022/02/25 05:49:36;;;;;;;18.80;3.75;;;23.20;99.90;;;;;;5051814;28;20029;-66
2022/02/25 05:52:04;;;;;;;18.70;3.58;;;23.20;99.90;;;;;;5053976;28;20104;-66
2022/02/25 05:54:31;;;;;;;17.08;2.92;;;23.20;99.90;;;;;;5051047;28;20029;-66
2022/02/25 05:56:58;;;;;;;16.88;3.38;;;23.20;99.90;;;;;;5045508;28;20022;-66
2022/02/25 05:59:25;;;;;;;15.10;4.10;;;23.20;99.90;;;;;;5047327;28;20049;-66
2022/02/25 06:01:53;;;;;;;14.77;2.70;;;23.30;99.90;;;;;;5053614;28;20079;-67
2022/02/25 06:04:20;;;;;;;15.05;2.70;;;23.30;99.90;;;;;;5052408;28;20489;-67
2022/02/25 06:06:47;;;;;;;13.60;3.70;;;23.30;99.90;;;;;;5050096;28;20032;-68
2022/02/25 06:09:14;;;;;;;15.07;3.35;;;23.30;99.90;;;;;;5051749;28;20044;-66
2022/02/25 06:11:42;;;;;;;10.13;3.10;;;23.30;99.90;;;;;;5051056;28;20025;-67
2022/02/25 06:14:09;;;;;;;17.00;3.45;;;23.40;99.90;;;;;;5047928;28;20056;-68
2022/02/25 06:16:36;;;;;;;16.60;3.75;;;23.40;99.90;;;;;;5050715;28;20021;-68
2022/02/25 06:19:03;;;;;;;14.45;3.38;;;23.40;99.90;;;;;;5053411;28;20057;-67
2022/02/25 06:21:31;;;;;;;12.02;3.58;;;23.40;99.90;;;;;;5047592;28;20092;-67
2022/02/25 06:23:58;;;;;;;22.17;3.88;;;23.40;99.90;;;;;;5033643;28;20072;-67
2022/02/25 06:26:25;;;;;;;16.95;3.40;;;23.40;99.90;;;;;;5046089;28;20110;-67
2022/02/25 06:28:53;;;;;;;24.77;5.05;;;23.30;99.90;;;;;;5045191;28;20083;-67
2022/02/25 06:31:20;;;;;;;16.27;3.55;;;23.20;99.90;;;;;;5047233;28;20366;-66
2022/02/25 06:33:48;;;;;;;14.25;3.40;;;23.20;99.90;;;;;;5048566;28;20076;-67
2022/02/25 06:36:15;;;;;;;23.02;4.88;;;23.20;99.90;;;;;;5051938;28;20091;-67
2022/02/25 06:38:42;;;;;;;18.08;5.10;;;23.20;99.90;;;;;;5045512;28;20029;-66
2022/02/25 06:41:10;;;;;;;23.27;4.57;;;23.20;99.90;;;;;;5051962;28;20496;-66
2022/02/25 06:43:37;;;;;;;17.10;4.38;;;23.20;99.90;;;;;;5051936;28;20037;-66
2022/02/25 06:46:05;;;;;;;21.10;5.45;;;23.20;99.90;;;;;;5048381;28;20370;-67
2022/02/25 06:48:32;;;;;;;18.52;4.35;;;23.20;99.90;;;;;;5055276;28;20112;-67
2022/02/25 06:50:59;;;;;;;17.23;3.80;;;23.20;99.90;;;;;;5049704;28;20028;-66
2022/02/25 06:53:26;;;;;;;20.98;4.63;;;23.10;99.90;;;;;;5051415;28;20043;-66
2022/02/25 06:55:54;;;;;;;19.08;3.70;;;23.20;99.90;;;;;;5055875;28;20573;-66
2022/02/25 06:58:21;;;;;;;20.60;3.00;;;23.10;99.90;;;;;;5050539;28;20021;-66
2022/02/25 07:00:48;;;;;;;11.23;2.47;;;22.90;99.90;;;;;;5048418;28;20017;-66
2022/02/25 07:03:15;;;;;;;12.40;2.47;;;22.80;99.90;;;;;;5054267;28;20481;-66
2022/02/25 07:05:43;;;;;;;9.93;1.80;;;22.60;99.90;;;;;;5048347;28;20040;-66
2022/02/25 07:08:11;;;;;;;6.30;1.95;;;22.50;99.90;;;;;;5052331;28;20036;-66
2022/02/25 07:10:39;;;;;;;9.75;1.42;;;22.40;99.90;;;;;;5048955;28;20025;-66
2022/02/25 07:13:09;;;;;;;8.43;2.00;;;22.30;99.90;;;;;;5045913;28;20029;-66
2022/02/25 07:15:37;;;;;;;7.20;1.33;;;22.30;99.90;;;;;;5036836;28;20036;-66
2022/02/25 07:18:05;;;;;;;6.78;2.05;;;22.40;99.90;;;;;;5052121;28;20040;-66
2022/02/25 07:20:33;;;;;;;9.82;2.20;;;22.40;99.90;;;;;;5052618;28;20040;-66
2022/02/25 07:23:00;;;;;;;7.55;2.38;;;22.40;99.90;;;;;;5055542;28;20036;-66
2022/02/25 07:25:28;;;;;;;7.82;2.45;;;22.40;99.90;;;;;;5050972;28;20021;-66
2022/02/25 07:27:56;;;;;;;8.35;2.00;;;22.30;99.90;;;;;;5050902;28;20067;-66
2022/02/25 07:30:24;;;;;;;7.45;2.03;;;22.30;99.90;;;;;;5056166;28;20016;-66
2022/02/25 07:32:51;;;;;;;7.00;1.55;;;22.40;99.90;;;;;;5047386;28;20024;-66
2022/02/25 07:35:19;;;;;;;4.72;1.58;;;22.40;99.90;;;;;;5054774;28;20040;-66
2022/02/25 07:37:46;;;;;;;4.90;1.30;;;22.40;99.90;;;;;;5033523;28;20432;-66
2022/02/25 07:40:17;;;;;;;7.07;1.92;;;22.40;99.90;;;;;;5060476;22;20579;-66
2022/02/25 07:42:45;;;;;;;8.50;2.08;;;22.40;99.90;;;;;;5040264;28;20208;-66
2022/02/25 07:45:13;;;;;;;7.95;2.03;;;22.30;99.90;;;;;;5048462;28;20080;-66
2022/02/25 07:47:41;;;;;;;11.20;3.33;;;22.30;99.90;;;;;;5052730;28;20418;-66
2022/02/25 07:50:14;;;;;;;14.10;3.75;;;22.20;99.90;;;;;;5045285;28;20101;-66
2022/02/25 07:52:42;;;;;;;9.15;3.00;;;22.20;99.90;;;;;;5040726;28;20044;-66
2022/02/25 07:55:11;;;;;;;10.90;3.85;;;22.20;99.90;;;;;;5049018;28;20035;-66
2022/02/25 07:57:38;;;;;;;11.20;4.78;;;22.20;99.90;;;;;;5051207;28;20051;-66
2022/02/25 08:00:09;;;;;;;9.20;3.83;;;22.10;99.90;;;;;;5036509;28;20029;-66
2022/02/25 08:02:36;;;;;;;14.48;5.03;;;22.10;99.90;;;;;;5046991;28;20565;-66
2022/02/25 08:05:04;;;;;;;14.07;4.40;;;22.10;99.90;;;;;;5051643;28;20064;-66
2022/02/25 08:07:32;;;;;;;14.20;4.22;;;22.10;99.90;;;;;;5034599;28;20112;-66
2022/02/25 08:09:59;;;;;;;15.93;4.90;;;22.10;99.90;;;;;;5031890;28;20462;-66
2022/02/25 08:12:27;;;;;;;16.83;5.00;;;22.10;99.90;;;;;;5050448;28;20511;-66
2022/02/25 08:14:54;;;;;;;19.00;4.88;;;22.20;99.90;;;;;;5054971;28;20101;-66
2022/02/25 08:17:24;;;;;;;16.50;5.30;;;22.20;99.90;;;;;;5053473;28;20051;-66
2022/02/25 08:19:51;;;;;;;19.15;5.82;;;22.20;99.90;;;;;;5050989;28;20111;-66
2022/02/25 08:22:20;;;;;;;18.92;6.00;;;22.20;99.90;;;;;;5052635;28;20485;-66
2022/02/25 08:24:48;;;;;;;21.83;6.95;;;22.20;99.90;;;;;;5048835;28;20035;-66
2022/02/25 08:27:15;;;;;;;24.63;7.85;;;22.20;99.90;;;;;;5052174;28;20127;-66
2022/02/25 08:29:43;;;;;;;19.63;6.15;;;22.20;99.90;;;;;;5048573;28;20017;-66
2022/02/25 08:32:11;;;;;;;22.63;6.90;;;22.20;99.90;;;;;;5054107;28;20024;-66
2022/02/25 08:34:39;;;;;;;23.10;5.85;;;22.20;99.90;;;;;;5050932;28;20017;-66
2022/02/25 08:37:07;;;;;;;20.25;5.22;;;22.10;99.90;;;;;;5049689;28;20029;-66
2022/02/25 08:39:35;;;;;;;23.17;5.93;;;22.20;99.90;;;;;;5039971;28;20051;-67
2022/02/25 08:42:03;;;;;;;22.02;6.38;;;22.10;99.90;;;;;;5049731;28;20024;-66
2022/02/25 08:44:30;;;;;;;19.17;5.38;;;22.10;99.90;;;;;;5023313;28;20048;-66
2022/02/25 08:46:58;;;;;;;23.27;6.80;;;22.10;99.90;;;;;;5048349;28;20029;-67
2022/02/25 08:49:25;;;;;;;22.08;7.82;;;22.00;99.90;;;;;;5050623;28;20115;-67
2022/02/25 08:51:53;;;;;;;23.77;6.57;;;22.00;99.90;;;;;;5045851;28;20025;-67
2022/02/25 08:54:20;;;;;;;15.13;5.68;;;22.00;99.90;;;;;;5053434;28;20544;-67
2022/02/25 08:56:47;;;;;;;20.52;5.85;;;21.90;99.90;;;;;;5053034;28;20084;-67
2022/02/25 08:59:14;;;;;;;16.35;4.95;;;21.90;99.90;;;;;;5028706;28;20044;-67
2022/02/25 09:01:42;;;;;;;17.40;5.70;;;21.90;99.90;;;;;;5052874;28;20025;-67
2022/02/25 09:04:09;;;;;;;20.17;5.65;;;21.90;99.90;;;;;;5060663;28;20033;-68
2022/02/25 09:06:38;;;;;;;17.70;6.57;;;21.90;99.90;;;;;;5062119;28;20175;-66
2022/02/25 09:09:06;;;;;;;22.60;6.90;;;21.90;99.90;;;;;;5055082;28;20027;-66
2022/02/25 09:11:33;;;;;;;15.43;5.60;;;21.90;99.90;;;;;;5057872;28;20028;-66
2022/02/25 09:14:01;;;;;;;21.45;6.47;;;21.90;99.90;;;;;;5054260;28;20026;-66
2022/02/25 09:16:28;;;;;;;23.23;5.82;;;21.80;99.90;;;;;;5031328;28;20025;-66
2022/02/25 09:18:55;;;;;;;17.45;5.72;;;21.80;99.90;;;;;;5051006;28;20512;-66
2022/02/25 09:21:23;;;;;;;16.25;5.80;;;21.80;99.90;;;;;;5045421;28;20020;-66
2022/02/25 09:23:51;;;;;;;14.70;5.22;;;21.90;99.90;;;;;;5038814;28;20542;-66
2022/02/25 09:26:18;;;;;;;26.20;6.78;;;21.90;99.90;;;;;;5041965;28;20025;-66
2022/02/25 09:28:45;;;;;;;20.15;6.07;;;21.90;99.90;;;;;;5048600;28;20025;-67
2022/02/25 09:31:13;;;;;;;27.27;7.57;;;21.90;99.90;;;;;;5048952;28;20024;-66
2022/02/25 09:33:40;;;;;;;20.58;6.85;;;21.90;99.90;;;;;;5055703;28;20031;-66
2022/02/25 09:36:08;;;;;;;20.38;6.57;;;21.90;99.90;;;;;;5049951;28;20064;-66
2022/02/25 09:38:36;;;;;;;19.10;5.75;;;21.90;99.90;;;;;;5052980;28;20029;-66
2022/02/25 09:41:06;;;;;;;23.67;7.78;;;22.00;99.90;;;;;;5050605;28;20482;-66
2022/02/25 09:43:33;;;;;;;22.25;6.20;;;21.90;99.90;;;;;;5050189;28;20170;-66
2022/02/25 09:46:06;;;;;;;23.90;5.90;;;22.00;99.90;;;;;;5050110;28;20072;-66
2022/02/25 09:48:34;;;;;;;22.52;6.47;;;22.00;99.90;;;;;;5038650;28;20064;-66
2022/02/25 09:51:01;;;;;;;24.13;6.97;;;22.00;99.90;;;;;;5047800;28;20028;-66
2022/02/25 09:53:29;;;;;;;20.00;6.80;;;22.00;99.90;;;;;;5048988;28;20025;-66
2022/02/25 09:55:57;;;;;;;21.60;5.78;;;22.00;99.90;;;;;;5044861;28;20507;-67
2022/02/25 09:58:24;;;;;;;25.50;6.57;;;22.00;99.90;;;;;;5042836;28;20037;-67
2022/02/25 10:00:52;;;;;;;27.13;6.38;;;22.10;99.90;;;;;;5051551;28;20026;-67
2022/02/25 10:03:21;;;;;;;20.83;5.78;;;22.00;99.90;;;;;;5057286;28;20033;-67
2022/02/25 10:05:49;;;;;;;26.27;6.28;;;22.10;99.90;;;;;;5059223;28;20029;-67
2022/02/25 10:08:19;;;;;;;33.45;7.25;;;22.10;99.90;;;;;;5053751;28;20026;-67
2022/02/25 10:10:51;;;;;;;23.58;5.63;;;22.10;99.90;;;;;;5054977;28;20081;-67
2022/02/25 10:13:21;;;;;;;29.75;5.75;;;22.10;99.90;;;;;;5026756;28;20404;-67
2022/02/25 10:15:53;;;;;;;27.25;5.10;;;22.10;99.90;;;;;;5048324;28;20025;-67
2022/02/25 10:18:32;;;;;;;29.13;6.38;;;22.10;99.90;;;;;;5058422;28;20075;-67
2022/02/25 10:21:10;;;;;;;25.75;4.88;;;22.10;99.90;;;;;;5052880;28;20540;-67
2022/02/25 10:23:43;;;;;;;28.70;5.75;;;22.10;99.90;;;;;;5056480;28;20542;-67
2022/02/25 10:26:15;;;;;;;32.83;5.65;;;22.00;99.90;;;;;;5050565;28;20042;-66
2022/02/25 10:28:51;;;;;;;25.13;6.25;;;22.00;99.90;;;;;;5047759;28;20021;-66
2022/02/25 10:31:23;;;;;;;24.60;5.07;;;21.90;99.90;;;;;;5055928;28;20029;-67
2022/02/25 10:34:11;;;;;;;20.08;3.95;;;21.90;99.90;;;;;;5056817;28;20029;-66
2022/02/25 10:37:00;;;;;;;29.65;4.75;;;21.90;99.90;;;;;;5047717;28;20060;-66
2022/02/25 10:39:30;;;;;;;26.05;4.50;;;21.90;99.90;;;;;;5042343;28;20046;-66
2022/02/25 10:42:22;;;;;;;20.80;4.80;;;21.90;99.90;;;;;;5051192;28;20103;-66
2022/02/25 10:44:53;;;;;;;25.88;4.82;;;21.90;99.90;;;;;;5048709;28;20020;-66
2022/02/25 10:47:26;;;;;;;25.55;4.38;;;21.90;99.90;;;;;;5038094;28;20033;-66
2022/02/25 10:50:04;;;;;;;19.55;4.22;;;21.90;99.90;;;;;;5050171;28;20053;-66
2022/02/25 10:52:37;;;;;;;26.02;4.45;;;21.90;99.90;;;;;;5044448;28;20025;-66
2022/02/25 10:55:12;;;;;;;19.25;4.10;;;21.90;99.90;;;;;;5035602;28;20025;-66
2022/02/25 10:57:39;;;;;;;16.48;3.78;;;21.90;99.90;;;;;;5059495;28;20066;-66
2022/02/25 11:00:11;;;;;;;17.27;3.67;;;21.80;99.90;;;;;;5058591;28;20033;-66
2022/02/25 11:02:40;;;;;;;19.67;3.35;;;21.70;99.90;;;;;;5052495;28;20028;-66
2022/02/25 11:05:18;;;;;;;16.20;3.42;;;21.70;99.90;;;;;;5056287;28;20124;-66
2022/02/25 11:07:50;;;;;;;17.60;3.47;;;21.70;99.90;;;;;;5058660;28;20024;-66
2022/02/25 11:10:20;;;;;;;18.05;2.60;;;21.70;99.90;;;;;;5052079;28;20393;-66
2022/02/25 11:12:49;;;;;;;14.45;2.70;;;21.60;99.90;;;;;;5044119;28;20020;-66
2022/02/25 11:15:26;;;;;;;19.55;4.32;;;21.70;99.90;;;;;;5056516;28;20113;-66
2022/02/25 11:17:54;;;;;;;14.93;3.15;;;21.50;99.90;;;;;;5029724;28;20051;-66
2022/02/25 11:20:28;;;;;;;14.85;3.15;;;21.50;99.90;;;;;;5056428;28;20021;-66
2022/02/25 11:23:01;;;;;;;16.23;2.83;;;21.50;99.90;;;;;;5048742;28;20100;-66
2022/02/25 11:25:29;;;;;;;12.77;2.42;;;21.40;99.90;;;;;;5046767;28;20099;-67
2022/02/25 11:27:57;;;;;;;16.05;2.78;;;21.40;99.90;;;;;;5018017;28;20108;-66
2022/02/25 11:30:30;;;;;;;12.40;2.42;;;21.40;99.90;;;;;;5038302;28;20382;-66
2022/02/25 11:32:58;;;;;;;12.43;2.30;;;21.20;99.90;;;;;;5053893;28;20519;-66
2022/02/25 11:35:34;;;;;;;12.95;2.67;;;21.20;99.90;;;;;;5047395;28;20021;-66
2022/02/25 11:38:07;;;;;;;13.60;2.28;;;21.20;99.90;;;;;;5051631;28;20107;-66
2022/02/25 11:40:55;;;;;;;11.55;2.83;;;21.20;99.90;;;;;;5051751;28;20127;-66
2022/02/25 11:43:55;;;;;;;10.80;2.05;;;21.20;99.90;;;;;;5051479;28;20477;-66
2022/02/25 11:46:24;;;;;;;9.82;2.30;;;21.20;99.90;;;;;;5011466;28;20052;-67
2022/02/25 11:48:57;;;;;;;15.95;2.05;;;21.10;99.90;;;;;;5049098;28;20056;-66
2022/02/25 11:51:31;;;;;;;19.42;4.13;;;21.10;99.90;;;;;;5035104;28;20028;-66
2022/02/25 11:54:19;;;;;;;10.93;2.45;;;21.10;99.90;;;;;;5033885;28;20060;-66
2022/02/25 11:56:56;;;;;;;13.75;2.60;;;21.10;99.90;;;;;;5044014;28;20032;-66
2022/02/25 11:59:33;;;;;;;12.75;2.85;;;21.20;99.90;;;;;;5050888;28;20029;-66
2022/02/25 12:02:04;;;;;;;19.48;2.88;;;21.20;99.90;;;;;;5035184;28;20509;-66
2022/02/25 12:04:36;;;;;;;16.38;3.03;;;21.20;99.90;;;;;;5043350;28;20477;-66
2022/02/25 12:07:11;;;;;;;19.33;2.80;;;21.20;99.90;;;;;;5052138;28;20132;-66
2022/02/25 12:09:48;;;;;;;20.17;2.85;;;21.20;99.90;;;;;;5049943;28;20518;-66
2022/02/25 12:12:24;;;;;;;12.15;2.47;;;21.20;99.90;;;;;;5050911;28;20166;-66
2022/02/25 12:15:17;;;;;;;12.85;2.75;;;21.20;99.90;;;;;;5046129;28;20032;-66
2022/02/25 12:17:51;;;;;;;15.50;2.60;;;21.20;99.90;;;;;;5050164;28;20025;-67
2022/02/25 12:20:35;;;;;;;19.92;3.60;;;21.20;99.90;;;;;;5043459;28;20021;-66
2022/02/25 12:23:11;;;;;;;19.70;3.88;;;21.20;99.90;;;;;;5050455;28;20075;-66
2022/02/25 12:25:48;;;;;;;14.50;2.47;;;21.30;99.90;;;;;;5052247;28;20064;-66
2022/02/25 12:28:28;;;;;;;13.95;2.80;;;21.30;99.90;;;;;;5062905;28;20397;-66
2022/02/25 12:31:05;;;;;;;13.43;2.92;;;21.20;99.90;;;;;;5056037;28;20029;-66
2022/02/25 12:33:45;;;;;;;9.23;1.85;;;21.20;99.90;;;;;;5056765;28;20024;-66
2022/02/25 12:36:29;;;;;;;7.70;1.10;;;21.00;99.90;;;;;;5056420;28;20488;-66
2022/02/25 12:39:17;;;;;;;11.85;2.28;;;20.90;99.90;;;;;;5056090;28;20052;-66
2022/02/25 12:41:45;;;;;;;8.00;2.55;;;20.80;99.90;;;;;;5055689;28;20044;-66
2022/02/25 12:44:20;;;;;;;9.90;1.50;;;20.60;99.90;;;;;;5053952;28;20035;-66
2022/02/25 12:46:51;;;;;;;14.10;1.98;;;20.60;99.90;;;;;;5054695;28;20417;-66
2022/02/25 12:49:21;;;;;;;7.68;1.73;;;20.50;99.90;;;;;;5055629;28;20033;-66
2022/02/25 12:51:49;;;;;;;9.77;2.20;;;20.40;99.90;;;;;;5055578;28;20132;-66
2022/02/25 12:54:19;;;;;;;12.05;1.65;;;20.40;99.90;;;;;;5050012;28;20021;-66
2022/02/25 12:56:51;;;;;;;10.10;2.20;;;20.40;99.90;;;;;;5053860;28;20043;-66